Weather at Auburn Municipal Airport

Public forecast

Using degrees Fahrenheit for public forecast. Weather courtesy of forecast.io.

Current aviation weather report (METAR) for Auburn Municipal Airport

Retrieved 2021/03/04 23:35 UTC (0 seconds ago):

KAUN 042335Z AUTO VRB03KT 10SM CLR 17/03 A3023 RMK A01

Closest aviation forecast (TAF) to Auburn Municipal Airport

Closest forecast is Beale Air Force Base, 19.8 nm (36.7 km) WNW. Retrieved 2021/03/04 19:18 UTC (4 hours ago):

TAF KBAB 041900Z 0419/0601 15012KT 9999 FEW200 QNH3018INS BECMG 0500/0501 18009KT 9999 FEW200 QNH3019INS BECMG 0503/0504 09006KT 9999 FEW200 510204 QNH3019INS BECMG 0517/0518 18009KT 9999 FEW200 QNH3011INS BECMG 0520/0521 15010G15KT 9999 FEW200 521009 QNH3000INS TX18/0423Z TN05/0515Z